Station: Mackay  

  Atmospheric Gas Attenuation - ITU Rec 676-11   ----------------- dB/100km -----------------
Date Time Temp RH % AH g/m3 Dew Point Wind Direction Speed kph Gust kph Barometer mB Rainfall Since 9am 24GHz 47GHz 76GHz 122GHz 134GHz 241GHz
08/05 19:20 22.2 47 9.23 10.4 17 24 1018.2 0 20.5 24.7 38.3 100.6 96.3 332.3
08/05 19:10 22.4 48 9.53 10.9 19 26 1018.1 0 21.1 25.1 39.3 103.3 99.7 344.2
08/05 19:00 22.3 49 9.67 11.1 17 24 1017.9 0 21.4 25.3 39.9 104.8 101.5 350.5
08/05 18:50 22.2 48 9.42 10.7 19 26 1018 0 20.9 25.0 39.0 102.5 98.6 340.3
08/05 18:40 22.4 49 9.73 11.2 17 20 1017.7 0 21.5 25.4 40.1 105.2 102.1 352.6
08/05 18:30 22.3 47 9.28 10.5 17 26 1017.5 0 20.6 24.7 38.4 100.9 96.8 333.8
08/05 18:20 22.3 51 10.07 11.7 17 22 1017.3 0 22.3 25.9 41.4 108.7 106.4 367.6
08/05 18:10 22.2 50 9.82 11.3 22 28 1017.1 0 21.7 25.5 40.5 106.3 103.5 357.2
08/05 18:00 22.2 52 10.21 11.9 19 28 1017.1 0 22.6 26.1 42.0 110.3 108.3 374.1
08/05 17:50 22.2 51 10.01 11.6 22 28 1016.9 0 22.1 25.8 41.2 108.2 105.8 365.4
08/05 17:40 22.1 55 10.74 12.6 19 20 1016.8 0 23.7 27.0 44.0 115.8 115.1 397.9
08/05 17:30 22.1 52 10.15 11.8 19 28 1016.7 0 22.4 26.1 41.8 109.8 107.6 371.9
08/05 17:20 22.2 53 10.4 12.2 19 28 1016.6 0 23.0 26.4 42.7 112.1 110.6 382.3
08/05 17:10 22.2 51 10.01 11.6 22 30 1016.5 0 22.1 25.8 41.2 108.2 105.7 365.2
08/05 17:00 22.3 53 10.46 12.3 17 30 1016.3 0 23.1 26.5 42.8 112.6 111.2 384.4
08/05 16:50 22.5 52 10.39 12.2 20 28 1016.3 0 22.9 26.3 42.4 111.6 110.0 380.3
08/05 16:40 22.6 55 11.05 13.1 20 26 1016.1 0 24.3 27.3 44.9 118.2 118.2 408.9
08/05 16:30 22.7 53 10.71 12.6 17 30 1016.1 0 23.6 26.7 43.6 114.6 113.8 393.3
08/05 16:20 22.8 54 10.97 13 20 28 1016 0 24.1 27.1 44.5 117.1 116.9 404.3
08/05 16:10 22.9 54 11.04 13.1 20 28 1015.9 0 24.3 27.2 44.7 117.6 117.6 406.9
08/05 16:00 23 56 11.51 13.8 19 28 1015.9 0 25.3 27.9 46.5 122.4 123.5 427.3
08/05 15:50 23 53 10.89 12.9 19 24 1015.8 0 24.0 26.9 44.1 115.9 115.6 399.7
08/05 15:40 23.3 53 11.08 13.2 19 26 1015.9 0 24.3 27.1 44.6 117.4 117.5 406.6
08/05 15:30 23.2 54 11.23 13.4 15 26 1015.9 0 24.7 27.4 45.3 119.1 119.6 413.8
08/05 15:20 23.3 53 11.08 13.2 15 20 1015.8 0 24.3 27.1 44.6 117.4 117.5 406.6
08/05 15:10 23.2 55 11.43 13.7 19 26 1015.8 0 25.1 27.7 46.0 121.2 122.1 422.6
08/05 15:00 23.3 53 11.08 13.2 17 28 1015.8 0 24.3 27.1 44.6 117.4 117.5 406.6
08/05 14:50 23.3 54 11.29 13.5 19 26 1015.9 0 24.8 27.4 45.4 119.6 120.2 415.9
08/05 14:40 23.6 56 11.91 14.3 17 32 1016 0 26.1 28.3 47.7 125.6 127.7 442.1
08/05 14:30 23.3 54 11.29 13.5 17 30 1016.1 0 24.8 27.4 45.5 119.6 120.2 416.0
08/05 14:20 23.3 54 11.29 13.5 15 24 1016.1 0 24.8 27.4 45.5 119.6 120.2 416.0
08/05 14:10 23.4 54 11.35 13.8 17 28 1016.2 0 24.9 27.5 45.6 120.1 120.8 418.1
08/05 14:00 23.3 54 11.29 13.5 19 28 1016.3 0 24.8 27.5 45.5 119.7 120.2 416.0
08/05 13:50 23.4 54 11.35 13.6 19 28 1016.3 0 24.9 27.5 45.6 120.1 120.8 418.2
08/05 13:40 23.2 54 11.23 13.4 20 28 1016.4 0 24.7 27.4 45.3 119.2 119.6 413.9
08/05 13:30 23.4 54 11.35 13.8 20 30 1016.5 0 24.9 27.5 45.6 120.1 120.9 418.2
08/05 13:20 23.1 55 11.37 13.6 22 28 1016.6 0 25.0 27.6 45.9 120.8 121.6 420.8
08/05 13:10 23.6 58 12.33 14.9 17 24 1016.7 0 26.9 29.0 49.4 130.1 133.2 461.4
08/05 13:00 23.3 57 11.92 14.3 17 26 1016.9 0 26.1 28.5 48.0 126.3 128.4 444.6
08/05 12:50 23.5 56 11.84 14.2 22 30 1017 0 25.9 28.3 47.5 125.2 127.0 439.8
08/05 12:40 23.8 57 12.26 15 15 26 1017.2 0 26.8 28.9 49.0 129.1 132.0 457.3
08/05 12:30 23.5 57 12.05 14.5 17 24 1017.4 0 26.4 28.6 48.4 127.4 129.8 449.5
08/05 12:20 24.1 56 12.25 14.8 13 20 1017.6 0 26.7 28.8 48.8 128.6 131.4 455.2
08/05 12:10 23.8 54 11.62 13.9 17 26 1017.7 0 25.4 27.9 46.5 122.5 123.8 428.5
08/05 12:00 23.9 55 11.9 14.3 15 24 1017.8 0 26.0 28.3 47.6 125.2 127.2 440.6
08/05 11:50 23.8 55 11.83 14.2 13 17 1018.1 0 25.9 28.2 47.4 124.7 126.5 438.1
08/05 11:40 23.8 52 11.19 13.6 17 24 1018.2 0 24.5 27.2 44.9 118.1 118.4 409.6
08/05 11:30 24.2 51 11.22 13.4 15 24 1018.4 0 24.6 27.1 44.8 117.8 118.2 408.9
08/05 11:20 24 53 11.53 13.8 19 28 1018.7 0 25.2 27.7 46.1 121.3 122.4 423.8
08/05 11:10 23.4 51 10.72 12.7 19 24 1018.8 0 23.6 26.6 43.3 113.9 113.1 391.2
08/05 11:00 23.1 51 10.54 12.4 22 32 1018.9 0 23.2 26.4 42.8 112.6 111.3 384.8
08/05 10:50 23 50 10.28 12 24 32 1018.9 0 22.7 26.1 41.9 110.1 108.2 374.0
08/05 10:40 22.5 47 9.39 10.9 24 33 1018.9 0 20.8 24.9 38.8 101.9 98.0 338.0
08/05 10:30 22.4 52 10.33 12.1 22 30 1019 0 22.8 26.3 42.4 111.4 109.7 379.0
08/05 10:20 21.6 50 9.48 10.7 24 33 1019.3 0 21.1 25.3 39.6 104.0 100.2 345.8
08/05 10:10 21.4 52 9.75 11.1 19 26 1019.3 0 21.6 25.7 40.7 106.9 103.8 358.4
08/05 10:00 21.2 51 9.45 10.7 22 33 1019.2 0 21.0 25.3 39.7 104.2 100.4 346.2
08/05 09:50 21.1 54 9.95 11.4 24 33 1019.1 0 22.1 26.1 41.6 109.3 106.7 368.4
08/05 09:40 20.9 53 9.65 11 22 30 1019.2 0 21.5 25.7 40.6 106.6 103.2 356.2
08/05 09:30 20.9 54 9.83 11.3 24 37 1019.2 0 21.8 26.0 41.3 108.4 105.5 364.1
08/05 09:20 20.6 52 9.31 10.4 24 33 1019.3 0 20.8 25.3 39.5 103.5 99.4 342.7
08/05 09:10 20.5 52 9.25 10.3 22 30 1019.2 0 20.6 25.2 39.3 103.1 98.8 340.5
08/05 09:00 20.4 52 9.2 10.2 26 39 1019.1 0 20.5 25.2 39.1 102.7 98.3 338.8
08/05 08:50 20.4 50 8.84 9.6 28 35 1018.9 0 19.8 24.6 37.8 99.1 93.8 323.2
08/05 08:40 20.3 54 9.5 10.7 24 30 1018.9 0 21.2 25.7 40.3 105.8 102.1 352.2
08/05 08:30 20.3 52 9.14 10.1 26 41 1018.7 0 20.4 25.1 38.9 102.2 97.6 336.5
08/05 08:20 20.1 52 9.04 9.9 24 30 1018.8 0 20.2 25.0 38.7 101.4 96.6 333.0
08/05 08:10 20 54 9.33 10.4 20 26 1018.7 0 20.8 25.5 39.8 104.5 100.3 346.0
08/05 08:00 19.9 56 9.62 10.9 22 35 1018.6 0 21.4 25.9 41.0 107.5 104.1 359.2
08/05 07:50 19.8 56 9.56 10.8 20 26 1018.5 0 21.3 25.9 40.8 107.1 103.5 357.0
08/05 07:40 20 53 9.16 10.1 19 26 1018.3 0 20.5 25.2 39.1 102.7 98.2 338.5
08/05 07:30 20.1 53 9.21 10.2 24 41 1018.1 0 20.6 25.2 39.3 103.1 98.7 340.2
08/05 07:20 20 54 9.33 10.4 22 33 1018.2 0 20.8 25.5 39.8 104.4 100.3 345.9
08/05 07:10 20 56 9.68 11 19 28 1018 0 21.6 26.0 41.1 108.0 104.7 361.2
08/05 07:00 19.8 55 9.39 10.5 22 37 1017.9 0 21.0 25.6 40.1 105.3 101.3 349.3
08/05 06:50 19.7 55 9.34 10.4 26 35 1017.6 0 20.9 25.5 39.9 104.8 100.8 347.5
08/05 06:40 19.7 54 9.17 10.1 22 28 1017.5 0 20.5 25.3 39.3 103.1 98.6 340.0
08/05 06:30 19.8 53 9.05 10 24 35 1017.3 0 20.2 25.0 38.8 101.8 97.0 334.3
08/05 06:20 19.8 52 8.88 9.7 30 39 1017.1 0 19.9 24.8 38.1 100.0 94.9 326.9
08/05 06:10 19.9 53 9.11 10 32 43 1017 0 20.4 25.1 38.9 102.2 97.6 336.4
08/05 06:00 20.1 52 9.04 9.9 28 44 1016.9 0 20.2 24.9 38.6 101.2 96.5 332.5
08/05 05:50 20.1 52 9.04 9.9 26 41 1016.6 0 20.2 24.9 38.6 101.2 96.4 332.4
08/05 05:40 19.9 54 9.28 10.3 20 35 1016.6 0 20.7 25.3 39.6 103.9 99.7 343.7
08/05 05:30 20 55 9.5 10.7 24 37 1016.4 0 21.2 25.6 40.3 106.0 102.3 352.8
08/05 05:20 20.1 57 9.91 11.3 20 26 1016.3 0 22.0 26.3 41.9 110.0 107.3 370.5
08/05 05:10 20.2 56 9.79 11.1 22 33 1016.2 0 21.8 26.0 41.3 108.6 105.7 364.7
08/05 05:00 20.3 55 9.67 11 22 35 1016.1 0 21.5 25.8 40.8 107.3 104.0 358.9
08/05 04:50 20.5 55 9.79 11.2 20 32 1016 0 21.8 25.9 41.2 108.2 105.2 363.2
08/05 04:40 20.3 56 9.85 11.2 22 30 1016 0 21.9 26.1 41.5 109.1 106.3 366.8
08/05 04:30 20.3 56 9.85 11.2 20 33 1016 0 21.9 26.1 41.5 109.1 106.3 366.8
08/05 04:20 20.4 57 10.08 11.6 20 28 1015.9 0 22.4 26.4 42.3 111.3 109.0 376.5
08/05 04:10 20.6 56 10.02 11.5 19 22 1015.9 0 22.3 26.3 42.0 110.4 108.0 372.9
08/05 04:00 20.7 55 9.9 11.3 24 35 1015.8 0 22.0 26.0 41.5 109.0 106.3 367.1
08/05 03:50 20.6 58 10.38 12.1 22 28 1015.8 0 23.0 26.8 43.4 114.1 112.6 388.9
08/05 03:40 20.8 57 10.32 12 22 28 1015.9 0 22.9 26.7 43.1 113.2 111.5 385.3
08/05 03:30 20.8 59 10.68 12.5 22 37 1015.9 0 23.6 27.2 44.5 117.0 116.1 401.5
08/05 03:20 20.8 59 10.68 12.5 20 28 1015.7 0 23.6 27.2 44.5 117.0 116.1 401.4
08/05 03:10 20.8 60 10.86 12.8 20 30 1015.7 0 24.0 27.5 45.2 118.9 118.5 409.6
08/05 03:00 20.9 61 11.11 13.1 24 39 1015.6 0 24.5 27.9 46.1 121.3 121.6 420.4
08/05 02:50 21 63 11.54 13.7 24 39 1015.5 0 25.4 28.5 47.8 125.8 127.0 439.6

Last Refresh: 08-May-2026 18:52:07

Bureau of Meteorology